This is the latest recevied weather packets stored in our database for station/object IR1ZYZ-3. If no packets are shown the sender has not sent any weather packets the latest 10 day(s).
| Time | Temp. | Humidity | Pressure | Rain* | Wind** | Luminosity | Snow |
|---|---|---|---|---|---|---|---|
| 1788024867 | 24.44° C | 93% | 1014.2 hPa | - | - | - | - |
| 1788024261 | 25° C | 96% | 1014 hPa | - | - | - | - |
| 1788023656 | 25° C | 90% | 1014 hPa | - | - | - | - |
| 1788023051 | 26.11° C | 83% | 1013.9 hPa | - | - | - | - |
| 1788022446 | 27.22° C | 72% | 1013.7 hPa | - | - | - | - |
| 1788021839 | 27.78° C | 70% | 1013.7 hPa | - | - | - | - |
| 1788021244 | 28.33° C | 66% | 1013.6 hPa | - | - | - | - |
| 1788021235 | 28.33° C | 66% | 1013.6 hPa | - | - | - | - |
| 1788021235 | 28.33° C | - | - | - | - | - | - |
| 1788020629 | 28.33° C | 67% | 1013.6 hPa | - | - | - | - |
| 1788020023 | 27.78° C | 65% | 1013.5 hPa | - | - | - | - |
| 1788019418 | 28.33° C | 63% | 1013.6 hPa | - | - | - | - |
| 1788018812 | 29.44° C | 57% | 1013.4 hPa | - | - | - | - |
| 1788018207 | 30.56° C | 54% | 1013.4 hPa | - | - | - | - |
| 1788017601 | 31.67° C | 48% | 1013.2 hPa | - | - | - | - |
| 1788016996 | 31.11° C | 46% | 1013.3 hPa | - | - | - | - |
| 1788016996 | 31.11° C | - | - | - | - | - | - |
| 1788016391 | 30.56° C | 49% | 1013.5 hPa | - | - | - | - |
| 1788015785 | 30.56° C | 49% | 1013.6 hPa | - | - | - | - |
| 1788014576 | 31.11° C | 50% | 1013.5 hPa | - | - | - | - |
| 1788013971 | 27.78° C | 58% | 1013.8 hPa | - | - | - | - |
| 1788013366 | 30.56° C | 48% | 1013.6 hPa | - | - | - | - |
| 1788013366 | 30.56° C | 48% | 1013.6 hPa | - | - | - | - |
| 1788012761 | 31.11° C | 45% | 1013.5 hPa | - | - | - | - |
| 1788012156 | 32.22° C | 44% | 1013.6 hPa | - | - | - | - |
* Rain since midnight (hover to see other rain measurements)
** Current wind speed in m/s (hover to see current wind gust speed)